createdAt,value
2019-05-13T00:01:34.502Z,7.66
2019-05-13T00:04:06.886Z,7.73
2019-05-13T00:06:51.382Z,7.59
2019-05-13T00:09:14.117Z,7.59
2019-05-13T00:11:46.593Z,7.56
2019-05-13T00:14:19.025Z,7.56
2019-05-13T00:16:53.480Z,7.63
2019-05-13T00:19:25.895Z,7.61
2019-05-13T00:21:59.787Z,7.61
2019-05-13T00:24:33.972Z,7.48
2019-05-13T00:27:06.767Z,7.47
2019-05-13T00:29:39.277Z,7.45
2019-05-13T00:32:13.498Z,7.30
2019-05-13T00:34:46.147Z,7.30
2019-05-13T00:37:18.593Z,7.31
2019-05-13T00:39:51.047Z,7.23
2019-05-13T00:42:24.490Z,7.20
2019-05-13T00:44:57.258Z,7.21
2019-05-13T00:47:34.201Z,7.24
2019-05-13T00:50:07.251Z,7.32
2019-05-13T00:52:39.441Z,7.22
2019-05-13T00:55:15.300Z,7.23
2019-05-13T00:57:47.650Z,7.32
2019-05-13T01:00:20.622Z,7.32
2019-05-13T01:02:54.617Z,7.31
2019-05-13T01:05:33.878Z,7.29
2019-05-13T01:08:06.296Z,7.11
2019-05-13T01:10:38.259Z,7.17
2019-05-13T01:13:10.260Z,7.07
2019-05-13T01:15:44.416Z,6.97
2019-05-13T01:18:17.708Z,6.85
2019-05-13T01:20:50.055Z,6.85
2019-05-13T01:23:24.046Z,6.87
2019-05-13T01:25:56.682Z,6.70
2019-05-13T01:28:30.674Z,6.70
2019-05-13T01:31:05.001Z,6.67
2019-05-13T01:33:37.334Z,6.67
2019-05-13T01:36:13.370Z,6.81
2019-05-13T01:38:46.060Z,6.81
2019-05-13T01:41:18.458Z,6.79
2019-05-13T01:43:50.721Z,6.74
2019-05-13T01:46:26.335Z,6.98
2019-05-13T01:48:58.748Z,7.10
2019-05-13T01:51:33.467Z,7.10
2019-05-13T01:54:05.419Z,6.90
2019-05-13T01:56:39.460Z,6.84
2019-05-13T01:59:15.311Z,6.83
2019-05-13T02:01:47.778Z,6.75
2019-05-13T02:04:20.291Z,6.70
2019-05-13T02:06:54.483Z,6.70
2019-05-13T02:09:26.830Z,6.70
2019-05-13T02:11:59.288Z,6.65
2019-05-13T02:14:34.047Z,6.62
2019-05-13T02:17:06.767Z,6.62
2019-05-13T02:19:39.286Z,6.52
2019-05-13T02:22:11.256Z,6.36
2019-05-13T02:24:44.653Z,6.19
2019-05-13T02:27:17.287Z,6.12
2019-05-13T02:29:49.749Z,5.90
2019-05-13T02:32:23.438Z,5.90
2019-05-13T02:35:02.748Z,5.86
2019-05-13T02:37:34.375Z,5.86
2019-05-13T02:40:09.009Z,5.83
2019-05-13T02:42:44.306Z,5.72
2019-05-13T02:45:16.921Z,5.54
2019-05-13T02:47:52.000Z,5.54
2019-05-13T02:50:26.643Z,5.55
2019-05-13T02:53:02.380Z,5.41
2019-05-13T02:55:34.740Z,5.32
2019-05-13T02:58:07.290Z,5.32
2019-05-13T03:00:43.821Z,5.16
2019-05-13T03:03:13.620Z,5.13
2019-05-13T03:05:45.991Z,5.13
2019-05-13T03:08:34.215Z,4.99
2019-05-13T03:10:53.074Z,4.99
2019-05-13T03:13:27.289Z,4.96
2019-05-13T03:16:13.202Z,4.82
2019-05-13T03:18:45.498Z,4.82
2019-05-13T03:21:18.503Z,4.74
2019-05-13T03:23:52.560Z,4.74
2019-05-13T03:26:24.404Z,4.71
2019-05-13T03:28:57.287Z,4.66
2019-05-13T03:31:35.231Z,4.36
2019-05-13T03:34:06.426Z,4.36
2019-05-13T03:36:45.767Z,4.56
2019-05-13T03:39:16.889Z,4.50
2019-05-13T03:41:54.289Z,4.55
2019-05-13T03:44:32.472Z,4.51
2019-05-13T03:47:12.252Z,4.54
2019-05-13T03:49:47.421Z,4.51
2019-05-13T03:52:22.487Z,4.45
2019-05-13T03:54:55.572Z,4.39
2019-05-13T03:57:29.038Z,4.51
2019-05-13T04:00:03.577Z,4.60
2019-05-13T04:02:36.014Z,4.64
2019-05-13T04:05:08.762Z,4.64
2019-05-13T04:07:43.426Z,4.66
2019-05-13T04:10:16.035Z,4.72
2019-05-13T04:12:48.540Z,4.66
2019-05-13T04:15:23.857Z,4.63
2019-05-13T04:18:02.685Z,4.75
2019-05-13T04:20:34.891Z,4.66
2019-05-13T04:23:07.310Z,4.65
2019-05-13T04:25:44.500Z,4.52
2019-05-13T04:28:14.547Z,4.52
2019-05-13T04:30:48.614Z,4.68
2019-05-13T04:33:23.011Z,4.65
2019-05-13T04:35:55.596Z,4.77
2019-05-13T04:38:28.288Z,4.77
2019-05-13T04:41:03.465Z,4.94
2019-05-13T04:43:35.074Z,4.94
2019-05-13T04:46:07.584Z,5.00
2019-05-13T04:48:44.261Z,5.20
2019-05-13T04:51:16.298Z,5.37
2019-05-13T04:53:53.689Z,5.32
2019-05-13T04:56:23.347Z,5.32
2019-05-13T04:58:55.735Z,5.52
2019-05-13T05:01:55.395Z,5.52
2019-05-13T05:04:35.173Z,5.50
2019-05-13T05:07:25.660Z,5.34
2019-05-13T05:10:34.746Z,5.34
2019-05-13T05:14:02.503Z,5.56
2019-05-13T05:17:06.658Z,5.64
2019-05-13T05:23:21.404Z,5.71
2019-05-13T05:26:47.383Z,5.77
2019-05-13T05:30:17.024Z,6.09
2019-05-13T05:33:42.807Z,6.09
2019-05-13T05:36:42.316Z,6.33
2019-05-13T05:39:25.712Z,6.68
2019-05-13T05:42:02.210Z,6.85
2019-05-13T05:44:34.289Z,6.91
2019-05-13T05:47:06.694Z,6.91
2019-05-13T05:49:43.480Z,6.97
2019-05-13T05:52:17.925Z,7.30
2019-05-13T05:54:54.571Z,7.36
2019-05-13T05:57:31.663Z,7.31
2019-05-13T06:00:11.519Z,7.89
2019-05-13T06:02:47.884Z,8.06
2019-05-13T06:05:21.395Z,8.08
2019-05-13T06:07:54.067Z,8.21
2019-05-13T06:10:26.750Z,8.48
2019-05-13T06:13:01.836Z,8.48
2019-05-13T06:15:37.365Z,8.61
2019-05-13T06:20:13.237Z,8.84
2019-05-13T06:22:44.719Z,8.98
2019-05-13T06:25:17.314Z,9.11
2019-05-13T06:27:51.518Z,9.37
2019-05-13T06:30:24.291Z,9.37
2019-05-13T06:32:56.712Z,9.72
2019-05-13T06:35:29.380Z,9.72
2019-05-13T06:38:01.764Z,9.95
2019-05-13T06:40:34.301Z,9.95
2019-05-13T06:43:06.753Z,10.02
2019-05-13T06:45:39.298Z,10.02
2019-05-13T06:48:11.910Z,10.46
2019-05-13T06:50:47.386Z,10.46
2019-05-13T06:53:21.773Z,10.52
2019-05-13T06:55:54.051Z,10.56
2019-05-13T06:58:26.438Z,10.66
2019-05-13T07:00:59.058Z,10.73
2019-05-13T07:03:32.333Z,10.87
2019-05-13T07:06:05.041Z,10.97
2019-05-13T07:08:37.838Z,11.06
2019-05-13T07:11:21.453Z,11.30
2019-05-13T07:13:44.856Z,11.36
2019-05-13T07:16:17.519Z,11.36
2019-05-13T07:18:52.087Z,11.54
2019-05-13T07:21:26.344Z,11.72
2019-05-13T07:23:58.920Z,11.70
2019-05-13T07:26:31.680Z,11.83
2019-05-13T07:29:04.913Z,11.89
2019-05-13T07:31:38.290Z,12.06
2019-05-13T07:34:11.634Z,12.38
2019-05-13T07:36:47.580Z,12.38
2019-05-13T07:39:22.306Z,12.54
2019-05-13T07:41:56.281Z,12.57
2019-05-13T07:44:32.164Z,12.88
2019-05-13T07:47:06.368Z,12.88
2019-05-13T07:49:39.169Z,12.70
2019-05-13T07:52:22.542Z,12.70
2019-05-13T07:54:54.330Z,12.72
2019-05-13T07:57:26.754Z,12.85
2019-05-13T08:00:02.128Z,13.19
2019-05-13T08:02:38.294Z,13.27
2019-05-13T08:05:16.507Z,13.36
2019-05-13T08:07:51.522Z,13.51
2019-05-13T08:10:26.765Z,13.66
2019-05-13T08:13:02.474Z,13.85
2019-05-13T08:15:36.649Z,13.65
2019-05-13T08:18:12.554Z,13.63
2019-05-13T08:20:52.495Z,13.70
2019-05-13T08:23:26.047Z,13.82
2019-05-13T08:26:03.051Z,13.90
2019-05-13T08:28:53.981Z,13.96
2019-05-13T08:31:23.863Z,14.18
2019-05-13T08:34:02.618Z,14.34
2019-05-13T08:36:35.267Z,14.44
2019-05-13T08:39:12.786Z,14.41
2019-05-13T08:41:44.938Z,14.41
2019-05-13T08:44:17.607Z,14.49
2019-05-13T08:46:51.864Z,14.61
2019-05-13T08:49:25.042Z,14.83
2019-05-13T08:51:57.760Z,14.83
2019-05-13T08:54:33.134Z,15.14
2019-05-13T08:57:06.050Z,15.17
2019-05-13T08:59:38.846Z,15.17
2019-05-13T09:02:11.617Z,15.64
2019-05-13T09:04:45.766Z,15.42
2019-05-13T09:07:21.858Z,15.56
2019-05-13T09:09:52.770Z,15.93
2019-05-13T09:12:32.343Z,15.87
2019-05-13T09:15:03.363Z,16.30
2019-05-13T09:17:35.365Z,16.42
2019-05-13T09:20:11.499Z,16.63
2019-05-13T09:22:44.713Z,16.72
2019-05-13T09:25:17.476Z,16.64
2019-05-13T09:27:51.327Z,16.90
2019-05-13T09:30:27.248Z,16.12
2019-05-13T09:32:58.666Z,15.94
2019-05-13T09:35:33.306Z,16.25
2019-05-13T09:38:06.287Z,16.29
2019-05-13T09:40:38.851Z,16.19
2019-05-13T09:43:11.757Z,16.19
2019-05-13T09:45:52.309Z,16.22
2019-05-13T09:48:25.007Z,16.37
2019-05-13T09:50:57.850Z,16.37
2019-05-13T09:54:11.687Z,16.21
2019-05-13T09:56:44.713Z,16.03
2019-05-13T09:59:21.965Z,16.30
2019-05-13T10:01:54.083Z,16.58
2019-05-13T10:04:27.549Z,16.30
2019-05-13T10:07:02.743Z,16.50
2019-05-13T10:09:38.684Z,16.45
2019-05-13T10:12:12.477Z,16.53
2019-05-13T10:14:45.547Z,16.78
2019-05-13T10:17:18.281Z,16.92
2019-05-13T10:19:52.008Z,16.71
2019-05-13T10:22:26.372Z,16.71
2019-05-13T10:25:06.754Z,16.53
2019-05-13T10:27:41.847Z,16.76
2019-05-13T10:30:15.463Z,17.42
2019-05-13T10:32:48.297Z,17.42
2019-05-13T10:35:20.224Z,18.41
2019-05-13T10:37:55.759Z,18.41
2019-05-13T10:40:28.474Z,17.98
2019-05-13T10:43:01.897Z,17.43
2019-05-13T10:45:37.965Z,17.99
2019-05-13T10:48:10.388Z,18.81
2019-05-13T10:50:42.670Z,18.81
2019-05-13T10:53:16.621Z,19.64
2019-05-13T10:55:52.176Z,20.01
2019-05-13T10:58:23.666Z,20.18
2019-05-13T11:00:57.714Z,19.80
2019-05-13T11:03:32.954Z,19.52
2019-05-13T11:06:06.308Z,19.03
2019-05-13T11:08:41.984Z,18.91
2019-05-13T11:11:13.585Z,18.70
2019-05-13T11:13:54.913Z,18.48
2019-05-13T11:16:22.589Z,18.24
2019-05-13T11:18:55.600Z,17.92
2019-05-13T11:21:31.622Z,18.73
2019-05-13T11:24:03.858Z,19.30
2019-05-13T11:26:36.765Z,19.30
2019-05-13T11:29:12.131Z,19.48
2019-05-13T11:31:44.891Z,19.33
2019-05-13T11:34:17.447Z,19.51
2019-05-13T11:36:53.217Z,19.27
2019-05-13T11:39:24.852Z,19.06
2019-05-13T11:41:57.348Z,19.41
2019-05-13T11:44:32.340Z,20.96
2019-05-13T11:47:05.047Z,20.96
2019-05-13T11:49:37.542Z,20.19
2019-05-13T11:52:11.661Z,19.69
2019-05-13T11:54:44.479Z,20.37
2019-05-13T11:57:16.803Z,20.31
2019-05-13T11:59:52.355Z,21.77
2019-05-13T12:02:23.545Z,22.34
2019-05-13T12:04:56.297Z,22.42
2019-05-13T12:07:28.777Z,23.84
2019-05-13T12:10:02.697Z,23.84
2019-05-13T12:12:35.323Z,24.46
2019-05-13T12:15:33.489Z,24.94
2019-05-13T12:17:56.469Z,24.94
2019-05-13T12:20:32.817Z,24.20
2019-05-13T12:23:04.825Z,24.10
2019-05-13T12:25:37.325Z,22.38
2019-05-13T12:28:11.423Z,25.32
2019-05-13T12:30:44.033Z,25.32
2019-05-13T12:33:16.532Z,26.27
2019-05-13T12:35:52.578Z,28.47
2019-05-13T12:38:23.300Z,27.38
2019-05-13T12:40:55.693Z,27.67
2019-05-13T12:43:28.288Z,27.58
2019-05-13T12:46:02.270Z,26.27
2019-05-13T12:48:35.398Z,26.27
2019-05-13T12:51:07.862Z,25.54
2019-05-13T12:53:43.521Z,26.67
2019-05-13T12:56:14.446Z,28.25
2019-05-13T12:58:46.713Z,29.98
2019-05-13T13:01:19.292Z,30.77
2019-05-13T13:03:51.758Z,27.67
2019-05-13T13:06:32.502Z,27.67
2019-05-13T13:08:57.424Z,26.30
2019-05-13T13:11:32.086Z,25.43
2019-05-13T13:14:05.720Z,27.37
2019-05-13T13:16:37.247Z,26.23
2019-05-13T13:19:14.024Z,28.58
2019-05-13T13:21:44.269Z,28.58
2019-05-13T13:24:16.712Z,27.57
2019-05-13T13:26:52.563Z,27.57
2019-05-13T13:29:22.608Z,28.60
2019-05-13T13:34:33.444Z,34.08
2019-05-13T13:37:05.032Z,32.37
2019-05-13T13:39:37.611Z,33.01
2019-05-13T13:42:12.881Z,33.01
2019-05-13T13:44:44.637Z,32.06
2019-05-13T13:47:17.383Z,34.09
2019-05-13T13:49:53.274Z,31.02
2019-05-13T13:52:26.123Z,32.38
2019-05-13T13:55:03.452Z,33.04
2019-05-13T13:57:32.700Z,36.43
2019-05-13T14:00:26.342Z,33.24
2019-05-13T14:02:43.093Z,35.14
2019-05-13T14:05:16.051Z,34.90
2019-05-13T14:06:58.379Z,32.24
2019-05-13T14:07:48.373Z,34.90
2019-05-13T14:10:21.993Z,36.30
2019-05-13T14:12:54.711Z,34.30
2019-05-13T14:15:30.867Z,34.30
2019-05-13T14:18:02.300Z,35.06
2019-05-13T14:20:34.698Z,34.90
2019-05-13T14:23:07.410Z,34.59
2019-05-13T14:25:42.043Z,36.07
2019-05-13T14:28:17.673Z,35.10
2019-05-13T14:30:51.431Z,33.16
2019-05-13T14:33:24.295Z,37.14
2019-05-13T14:35:56.583Z,36.27
2019-05-13T14:38:28.970Z,36.27
2019-05-13T14:41:03.493Z,35.64
2019-05-13T14:43:36.286Z,37.55
2019-05-13T14:46:08.742Z,34.62
2019-05-13T14:48:43.347Z,34.62
2019-05-13T14:51:15.383Z,32.18
2019-05-13T14:53:47.689Z,29.63
2019-05-13T14:56:22.125Z,29.63
2019-05-13T14:58:54.421Z,28.50
2019-05-13T15:01:26.789Z,27.47
2019-05-13T15:03:59.359Z,28.71
2019-05-13T15:06:32.893Z,33.36
2019-05-13T15:09:07.379Z,33.36
2019-05-13T15:11:41.914Z,25.99
2019-05-13T15:14:14.296Z,25.99
2019-05-13T15:17:00.551Z,25.78
2019-05-13T15:19:22.337Z,25.78
2019-05-13T15:21:54.241Z,23.98
2019-05-13T15:24:28.016Z,23.78
2019-05-13T15:27:00.656Z,23.53
2019-05-13T15:29:34.304Z,26.19
2019-05-13T15:32:08.013Z,32.42
2019-05-13T15:34:45.809Z,32.42
2019-05-13T15:37:18.358Z,34.47
2019-05-13T15:39:51.853Z,34.19
2019-05-13T15:42:24.744Z,34.19
2019-05-13T15:44:57.299Z,34.99
2019-05-13T15:47:30.320Z,35.84
2019-05-13T15:50:03.344Z,35.13
2019-05-13T15:52:36.008Z,34.55
2019-05-13T15:55:11.970Z,32.33
2019-05-13T15:57:44.333Z,29.75
2019-05-13T16:00:17.298Z,26.14
2019-05-13T16:02:52.072Z,26.14
2019-05-13T16:05:23.140Z,29.26
2019-05-13T16:07:55.707Z,29.98
2019-05-13T16:10:28.312Z,30.02
2019-05-13T16:13:02.328Z,28.38
2019-05-13T16:15:36.295Z,28.38
2019-05-13T16:18:08.595Z,26.55
2019-05-13T16:20:44.435Z,26.55
2019-05-13T16:23:15.362Z,25.97
2019-05-13T16:25:48.036Z,23.30
2019-05-13T16:28:20.384Z,23.30
2019-05-13T16:30:52.758Z,22.17
2019-05-13T16:33:25.293Z,22.17
2019-05-13T16:35:58.530Z,21.39
2019-05-13T16:38:33.019Z,21.39
2019-05-13T16:41:05.767Z,21.34
2019-05-13T16:43:38.473Z,20.45
2019-05-13T16:46:12.094Z,20.36
2019-05-13T16:48:46.027Z,20.42
2019-05-13T16:51:21.411Z,20.50
2019-05-13T16:53:52.795Z,19.80
2019-05-13T16:56:30.409Z,19.80
2019-05-13T17:01:38.507Z,19.59
2019-05-13T17:04:12.613Z,19.31
2019-05-13T17:06:45.347Z,18.94
2019-05-13T17:09:18.028Z,18.86
2019-05-13T17:11:51.942Z,18.94
2019-05-13T17:14:24.685Z,19.06
2019-05-13T17:16:57.323Z,19.06
2019-05-13T17:19:31.800Z,18.96
2019-05-13T17:22:04.515Z,18.53
2019-05-13T17:24:38.349Z,18.44
2019-05-13T17:30:14.071Z,18.43
2019-05-13T17:32:48.368Z,18.13
2019-05-13T17:35:22.564Z,17.73
2019-05-13T17:37:55.424Z,17.73
2019-05-13T17:40:32.067Z,17.56
2019-05-13T17:43:04.612Z,17.42
2019-05-13T17:45:37.151Z,17.31
2019-05-13T17:48:25.437Z,16.87
2019-05-13T17:50:44.481Z,16.61
2019-05-13T17:53:32.703Z,16.68
2019-05-13T17:56:13.482Z,16.51
2019-05-13T17:59:53.537Z,16.36
2019-05-13T18:02:31.271Z,16.24
2019-05-13T18:05:17.872Z,15.94
2019-05-13T18:07:53.510Z,15.81
2019-05-13T18:10:41.961Z,15.82
2019-05-13T18:13:41.420Z,15.73
2019-05-13T18:16:14.506Z,15.47
2019-05-13T18:18:47.778Z,15.27
2019-05-13T18:21:20.665Z,15.34
2019-05-13T18:23:53.294Z,15.15
2019-05-13T18:26:26.093Z,14.60
2019-05-13T18:28:58.872Z,14.60
2019-05-13T18:31:31.594Z,14.65
2019-05-13T18:34:04.891Z,14.59
2019-05-13T18:36:37.499Z,14.65
2019-05-13T18:39:12.600Z,14.43
2019-05-13T18:41:45.299Z,14.37
2019-05-13T18:44:17.700Z,14.16
2019-05-13T18:46:52.412Z,14.16
2019-05-13T18:49:24.391Z,13.91
2019-05-13T18:51:57.389Z,13.87
2019-05-13T18:54:31.649Z,13.87
2019-05-13T18:57:05.723Z,13.56
2019-05-13T18:59:42.076Z,13.49
2019-05-13T19:03:24.856Z,13.24
2019-05-13T19:05:57.501Z,13.06
2019-05-13T19:08:32.094Z,12.97
2019-05-13T19:11:05.439Z,12.96
2019-05-13T19:13:41.711Z,12.84
2019-05-13T19:16:14.355Z,12.64
2019-05-13T19:18:47.399Z,12.42
2019-05-13T19:21:21.909Z,12.41
2019-05-13T19:23:57.477Z,12.21
2019-05-13T19:26:29.910Z,12.04
2019-05-13T19:29:03.929Z,12.05
2019-05-13T19:31:36.692Z,11.91
2019-05-13T19:34:09.317Z,11.75
2019-05-13T19:36:42.009Z,11.27
2019-05-13T19:39:14.698Z,11.27
2019-05-13T19:41:49.004Z,11.38
2019-05-13T19:44:22.037Z,11.32
2019-05-13T19:46:55.053Z,11.26
2019-05-13T19:49:33.014Z,11.14
2019-05-13T19:52:03.322Z,11.31
2019-05-13T19:54:35.735Z,11.32
2019-05-13T19:57:08.627Z,11.32
2019-05-13T19:59:42.674Z,11.12
2019-05-13T20:02:15.521Z,11.09
2019-05-13T20:04:48.311Z,10.95
2019-05-13T20:07:22.455Z,10.57
2019-05-13T20:09:55.306Z,10.57
2019-05-13T20:12:27.859Z,10.64
2019-05-13T20:15:01.417Z,10.64
2019-05-13T20:17:36.149Z,10.82
2019-05-13T20:20:12.417Z,10.88
2019-05-13T20:22:44.767Z,10.84
2019-05-13T20:25:17.422Z,10.82
2019-05-13T20:27:51.523Z,10.93
2019-05-13T20:30:23.283Z,10.93
2019-05-13T20:32:55.717Z,10.78
2019-05-13T20:35:28.299Z,11.00
2019-05-13T20:38:02.154Z,11.07
2019-05-13T20:40:36.318Z,11.07
2019-05-13T20:44:37.475Z,10.93
2019-05-13T20:47:10.306Z,10.71
2019-05-13T20:49:43.008Z,10.52
2019-05-13T20:52:16.273Z,10.52
2019-05-13T20:54:51.166Z,10.82
2019-05-13T20:57:32.316Z,10.70
2019-05-13T21:00:07.569Z,10.62
2019-05-13T21:02:41.995Z,10.62
2019-05-13T21:05:21.720Z,10.55
2019-05-13T21:07:53.292Z,10.60
2019-05-13T21:10:25.118Z,10.60
2019-05-13T21:12:57.699Z,10.60
2019-05-13T21:15:31.690Z,10.64
2019-05-13T21:18:06.684Z,10.55
2019-05-13T21:21:03.416Z,10.40
2019-05-13T21:23:36.667Z,10.33
2019-05-13T21:26:12.977Z,10.44
2019-05-13T21:28:43.542Z,10.43
2019-05-13T21:31:16.069Z,10.47
2019-05-13T21:33:48.617Z,10.48
2019-05-13T21:36:21.602Z,10.42
2019-05-13T21:38:54.478Z,10.31
2019-05-13T21:41:27.346Z,10.38
2019-05-13T21:44:01.268Z,10.41
2019-05-13T21:46:34.397Z,10.39
2019-05-13T21:49:06.913Z,10.42
2019-05-13T21:51:42.337Z,10.26
2019-05-13T21:54:15.810Z,10.35
2019-05-13T21:56:51.455Z,10.26
2019-05-13T21:59:23.462Z,10.22
2019-05-13T22:01:56.003Z,10.11
2019-05-13T22:04:31.562Z,10.14
2019-05-13T22:07:04.391Z,10.10
2019-05-13T22:09:36.822Z,10.06
2019-05-13T22:12:09.951Z,9.98
2019-05-13T22:14:43.621Z,9.95
2019-05-13T22:17:16.525Z,9.90
2019-05-13T22:19:51.122Z,9.81
2019-05-13T22:22:23.321Z,9.69
2019-05-13T22:24:56.314Z,9.70
2019-05-13T22:27:28.777Z,9.69
2019-05-13T22:30:01.456Z,9.69
2019-05-13T22:32:34.064Z,9.71
2019-05-13T22:35:07.091Z,9.71
2019-05-13T22:37:39.246Z,9.62
2019-05-13T22:40:13.441Z,9.57
2019-05-13T22:42:47.658Z,9.54
2019-05-13T22:45:22.091Z,9.48
2019-05-13T22:47:54.677Z,9.37
2019-05-13T22:50:28.313Z,9.13
2019-05-13T22:53:01.416Z,8.67
2019-05-13T22:55:35.472Z,8.67
2019-05-13T22:58:08.860Z,8.59
2019-05-13T23:00:43.578Z,8.44
2019-05-13T23:03:19.290Z,8.30
2019-05-13T23:05:52.220Z,8.22
2019-05-13T23:08:24.883Z,8.13
2019-05-13T23:10:57.413Z,8.13
2019-05-13T23:13:31.301Z,7.95
2019-05-13T23:16:04.291Z,7.85
2019-05-13T23:18:37.312Z,7.78
2019-05-13T23:21:11.469Z,7.66
2019-05-13T23:23:44.062Z,7.66
2019-05-13T23:26:16.649Z,7.52
2019-05-13T23:28:49.309Z,7.48
2019-05-13T23:31:21.814Z,7.09
2019-05-13T23:33:54.688Z,7.09
2019-05-13T23:36:27.294Z,7.18
2019-05-13T23:39:01.047Z,6.92
2019-05-13T23:41:35.554Z,6.97
2019-05-13T23:44:23.298Z,6.97
2019-05-13T23:46:45.358Z,6.93
2019-05-13T23:49:21.076Z,6.67
2019-05-13T23:51:53.770Z,6.68
2019-05-13T23:54:56.031Z,6.68
2019-05-13T23:57:07.443Z,6.55
2019-05-13T23:59:42.038Z,6.38
